Pagrindinis puslapis
METAR-TAF:

METAR-TAF

Oro uostai :

Kota Bharu, Malaizija

platuma: 06-10N, ilguma: 102-17E, Aukštis: 5 m

Dabartinis oras

Ataskaita buvo paskelbta 1 valandą ir 1 minutes, ne 07:00 UTC
Vėjas 16 kt iš Rytų/Šiaurės Rytų, svyruoja nuo Šiaurės/Šiaurės Rytų ir Rytų
Temperatūra 29°C
Drėgmė 70%
Slėgis 1013 hPa
Matomumas 10 km arba daugiau
Išsisklaidę debesys ne aukštis 1800 ft

METAR: WMKC 230700Z 06016KT 020V090 9999 SCT018 29/23 Q1013

Laikas: 16:01 (08:01 UTC)

Prognozė

Ataskaita buvo paskelbta 3 valandos ir 1 minutes, ne 05:00 UTC
Prognozė galioja nuo 23 metu 06 UTC su 24 metu 06 UTC
Vėjas 15 kt iš Rytų
Matomumas 10 km arba daugiau
Išsisklaidę debesys ne aukštis 1800 ft
Tapsmas
nuo 23 metu 11 UTC su 23 metu 13 UTC
Mažai debesys ne aukštis 2000 ft

TAF: WMKC 230500Z 2306/2406 08015KT 9999 SCT018 BECMG 2311/2313 FEW020

Orai ataskaitas ir orų prognozės (METAR, TAF).

turimą stotys yra geltonos ir raudonos taškus žemėlapyje.

Perkelti pele per norėdami pamatyti stoties vardą.

Tada spustelėkite, norėdami matyti oro stebėjimo ir prognozės.

Norėdami pakeisti žemėlapį: spustelėkite ant žalios mygtukų su juodo kryžiaus žemyn,; žalią mygtuką su brūkšneliu, jei norite nutolinti; arba žalių rodyklių gretimoms žemėlapius.


METAR-TAF: